sensor_id;sensor_type;location;lat;lon;timestamp;P1;durP1;ratioP1;P2;durP2;ratioP2
9976;SDS011;5029;47.378;11.776;2023-02-12T00:01:44;10.73;;;6.87;;
9976;SDS011;5029;47.378;11.776;2023-02-12T00:06:49;7.33;;;6.10;;
9976;SDS011;5029;47.378;11.776;2023-02-12T00:11:52;7.77;;;6.30;;
9976;SDS011;5029;47.378;11.776;2023-02-12T00:16:56;8.20;;;6.23;;
9976;SDS011;5029;47.378;11.776;2023-02-12T00:22:01;8.87;;;6.47;;
9976;SDS011;5029;47.378;11.776;2023-02-12T00:27:04;8.97;;;6.13;;
9976;SDS011;5029;47.378;11.776;2023-02-12T00:32:07;9.53;;;6.10;;
9976;SDS011;5029;47.378;11.776;2023-02-12T00:37:12;8.67;;;6.57;;
9976;SDS011;5029;47.378;11.776;2023-02-12T00:42:16;7.23;;;6.07;;
9976;SDS011;5029;47.378;11.776;2023-02-12T00:47:20;8.03;;;5.77;;
9976;SDS011;5029;47.378;11.776;2023-02-12T00:52:25;8.20;;;5.97;;
9976;SDS011;5029;47.378;11.776;2023-02-12T00:57:28;7.83;;;5.90;;
9976;SDS011;5029;47.378;11.776;2023-02-12T01:02:33;8.90;;;5.83;;
9976;SDS011;5029;47.378;11.776;2023-02-12T01:07:38;7.07;;;5.30;;
9976;SDS011;5029;47.378;11.776;2023-02-12T01:12:42;7.10;;;5.40;;
9976;SDS011;5029;47.378;11.776;2023-02-12T01:17:45;5.67;;;4.43;;
9976;SDS011;5029;47.378;11.776;2023-02-12T01:22:50;6.57;;;5.03;;
9976;SDS011;5029;47.378;11.776;2023-02-12T01:27:54;5.43;;;4.17;;
9976;SDS011;5029;47.378;11.776;2023-02-12T01:32:57;6.40;;;5.37;;
9976;SDS011;5029;47.378;11.776;2023-02-12T01:38:02;5.93;;;5.20;;
9976;SDS011;5029;47.378;11.776;2023-02-12T01:43:06;6.93;;;4.80;;
9976;SDS011;5029;47.378;11.776;2023-02-12T01:48:14;5.70;;;4.83;;
9976;SDS011;5029;47.378;11.776;2023-02-12T01:53:21;5.27;;;4.63;;
9976;SDS011;5029;47.378;11.776;2023-02-12T01:58:29;8.33;;;5.43;;
9976;SDS011;5029;47.378;11.776;2023-02-12T02:03:37;11.63;;;5.87;;
9976;SDS011;5029;47.378;11.776;2023-02-12T02:08:44;6.57;;;5.47;;
9976;SDS011;5029;47.378;11.776;2023-02-12T02:13:48;7.43;;;5.43;;
9976;SDS011;5029;47.378;11.776;2023-02-12T02:19:11;7.53;;;5.37;;
9976;SDS011;5029;47.378;11.776;2023-02-12T02:30:23;6.93;;;4.93;;
9976;SDS011;5029;47.378;11.776;2023-02-12T02:35:36;8.03;;;5.40;;
9976;SDS011;5029;47.378;11.776;2023-02-12T02:40:47;11.63;;;5.57;;
9976;SDS011;5029;47.378;11.776;2023-02-12T02:45:58;8.97;;;5.80;;
9976;SDS011;5029;47.378;11.776;2023-02-12T02:51:08;7.80;;;5.27;;
9976;SDS011;5029;47.378;11.776;2023-02-12T02:56:16;8.17;;;5.80;;
9976;SDS011;5029;47.378;11.776;2023-02-12T03:01:25;6.93;;;6.00;;
9976;SDS011;5029;47.378;11.776;2023-02-12T03:06:33;8.93;;;5.60;;
9976;SDS011;5029;47.378;11.776;2023-02-12T03:11:45;7.60;;;5.07;;
9976;SDS011;5029;47.378;11.776;2023-02-12T03:16:53;7.90;;;5.67;;
9976;SDS011;5029;47.378;11.776;2023-02-12T03:22:01;7.70;;;5.83;;
9976;SDS011;5029;47.378;11.776;2023-02-12T03:27:08;7.63;;;5.30;;
9976;SDS011;5029;47.378;11.776;2023-02-12T03:32:20;6.33;;;5.73;;
9976;SDS011;5029;47.378;11.776;2023-02-12T03:37:29;6.33;;;5.50;;
9976;SDS011;5029;47.378;11.776;2023-02-12T03:42:38;5.53;;;4.93;;
9976;SDS011;5029;47.378;11.776;2023-02-12T03:47:48;7.63;;;5.70;;
9976;SDS011;5029;47.378;11.776;2023-02-12T03:52:59;7.17;;;5.50;;
9976;SDS011;5029;47.378;11.776;2023-02-12T03:58:02;8.23;;;5.47;;
9976;SDS011;5029;47.378;11.776;2023-02-12T04:03:12;8.77;;;5.43;;
9976;SDS011;5029;47.378;11.776;2023-02-12T04:08:16;7.17;;;5.50;;
9976;SDS011;5029;47.378;11.776;2023-02-12T04:13:20;7.27;;;5.23;;
9976;SDS011;5029;47.378;11.776;2023-02-12T04:18:33;6.77;;;5.13;;
9976;SDS011;5029;47.378;11.776;2023-02-12T04:23:49;7.63;;;4.90;;
9976;SDS011;5029;47.378;11.776;2023-02-12T04:29:09;6.63;;;4.83;;
9976;SDS011;5029;47.378;11.776;2023-02-12T04:34:21;5.80;;;5.10;;
9976;SDS011;5029;47.378;11.776;2023-02-12T04:39:33;7.30;;;5.20;;
9976;SDS011;5029;47.378;11.776;2023-02-12T04:44:40;6.33;;;4.77;;
9976;SDS011;5029;47.378;11.776;2023-02-12T04:49:46;7.70;;;4.83;;
9976;SDS011;5029;47.378;11.776;2023-02-12T04:54:50;6.90;;;4.60;;
9976;SDS011;5029;47.378;11.776;2023-02-12T04:59:53;7.13;;;5.00;;
9976;SDS011;5029;47.378;11.776;2023-02-12T05:04:58;6.97;;;4.57;;
9976;SDS011;5029;47.378;11.776;2023-02-12T05:10:01;6.30;;;4.40;;
9976;SDS011;5029;47.378;11.776;2023-02-12T05:15:05;7.27;;;5.10;;
9976;SDS011;5029;47.378;11.776;2023-02-12T05:20:11;8.43;;;5.27;;
9976;SDS011;5029;47.378;11.776;2023-02-12T05:25:15;8.17;;;5.50;;
9976;SDS011;5029;47.378;11.776;2023-02-12T05:30:19;5.80;;;4.80;;
9976;SDS011;5029;47.378;11.776;2023-02-12T05:35:23;7.50;;;5.20;;
9976;SDS011;5029;47.378;11.776;2023-02-12T05:40:27;7.57;;;5.60;;
9976;SDS011;5029;47.378;11.776;2023-02-12T05:45:31;5.53;;;4.63;;
9976;SDS011;5029;47.378;11.776;2023-02-12T05:50:36;7.47;;;5.50;;
9976;SDS011;5029;47.378;11.776;2023-02-12T05:55:39;7.33;;;4.87;;
9976;SDS011;5029;47.378;11.776;2023-02-12T06:00:43;6.00;;;4.73;;
9976;SDS011;5029;47.378;11.776;2023-02-12T06:05:50;6.77;;;5.23;;
9976;SDS011;5029;47.378;11.776;2023-02-12T06:10:54;7.17;;;4.90;;
9976;SDS011;5029;47.378;11.776;2023-02-12T06:16:01;6.43;;;4.80;;
9976;SDS011;5029;47.378;11.776;2023-02-12T06:21:07;9.03;;;4.90;;
9976;SDS011;5029;47.378;11.776;2023-02-12T06:26:10;6.97;;;4.83;;
9976;SDS011;5029;47.378;11.776;2023-02-12T06:31:18;7.00;;;5.10;;
9976;SDS011;5029;47.378;11.776;2023-02-12T06:36:24;7.00;;;5.33;;
9976;SDS011;5029;47.378;11.776;2023-02-12T06:41:28;8.23;;;5.83;;
9976;SDS011;5029;47.378;11.776;2023-02-12T06:46:31;5.10;;;4.57;;
9976;SDS011;5029;47.378;11.776;2023-02-12T06:51:36;9.00;;;5.87;;
9976;SDS011;5029;47.378;11.776;2023-02-12T06:56:41;8.00;;;5.70;;
9976;SDS011;5029;47.378;11.776;2023-02-12T07:01:45;10.13;;;6.90;;
9976;SDS011;5029;47.378;11.776;2023-02-12T07:06:50;7.13;;;6.43;;
9976;SDS011;5029;47.378;11.776;2023-02-12T07:11:53;9.97;;;6.80;;
9976;SDS011;5029;47.378;11.776;2023-02-12T07:16:57;7.30;;;5.47;;
9976;SDS011;5029;47.378;11.776;2023-02-12T07:22:05;8.30;;;5.87;;
9976;SDS011;5029;47.378;11.776;2023-02-12T07:27:08;9.27;;;6.10;;
9976;SDS011;5029;47.378;11.776;2023-02-12T07:32:12;9.07;;;5.87;;
9976;SDS011;5029;47.378;11.776;2023-02-12T07:37:17;7.43;;;5.83;;
9976;SDS011;5029;47.378;11.776;2023-02-12T07:42:23;10.93;;;7.17;;
9976;SDS011;5029;47.378;11.776;2023-02-12T07:47:26;13.50;;;7.73;;
9976;SDS011;5029;47.378;11.776;2023-02-12T07:52:31;8.80;;;5.83;;
9976;SDS011;5029;47.378;11.776;2023-02-12T07:57:34;10.03;;;6.57;;
9976;SDS011;5029;47.378;11.776;2023-02-12T08:02:38;11.93;;;7.10;;
9976;SDS011;5029;47.378;11.776;2023-02-12T08:13:03;11.20;;;8.00;;
9976;SDS011;5029;47.378;11.776;2023-02-12T08:18:07;15.33;;;11.43;;
9976;SDS011;5029;47.378;11.776;2023-02-12T09:36:11;6.90;;;5.40;;
9976;SDS011;5029;47.378;11.776;2023-02-12T09:46:51;7.73;;;6.13;;
9976;SDS011;5029;47.378;11.776;2023-02-12T09:52:00;7.20;;;5.67;;
9976;SDS011;5029;47.378;11.776;2023-02-12T09:57:11;6.73;;;5.37;;
9976;SDS011;5029;47.378;11.776;2023-02-12T10:02:19;5.90;;;5.13;;
9976;SDS011;5029;47.378;11.776;2023-02-12T10:07:30;5.40;;;4.57;;
9976;SDS011;5029;47.378;11.776;2023-02-12T10:12:46;5.10;;;4.57;;
9976;SDS011;5029;47.378;11.776;2023-02-12T10:17:55;5.80;;;4.23;;
9976;SDS011;5029;47.378;11.776;2023-02-12T10:23:18;4.50;;;3.77;;
9976;SDS011;5029;47.378;11.776;2023-02-12T10:28:41;4.77;;;3.80;;
9976;SDS011;5029;47.378;11.776;2023-02-12T10:33:45;4.00;;;3.60;;
9976;SDS011;5029;47.378;11.776;2023-02-12T10:38:52;5.47;;;3.90;;
9976;SDS011;5029;47.378;11.776;2023-02-12T10:44:01;3.90;;;2.90;;
9976;SDS011;5029;47.378;11.776;2023-02-12T10:49:05;5.23;;;3.53;;
9976;SDS011;5029;47.378;11.776;2023-02-12T10:54:32;5.00;;;3.53;;
9976;SDS011;5029;47.378;11.776;2023-02-12T10:59:38;6.73;;;3.37;;
9976;SDS011;5029;47.378;11.776;2023-02-12T11:04:42;3.80;;;3.37;;
9976;SDS011;5029;47.378;11.776;2023-02-12T11:09:47;6.37;;;3.23;;
9976;SDS011;5029;47.378;11.776;2023-02-12T11:14:53;4.00;;;3.40;;
9976;SDS011;5029;47.378;11.776;2023-02-12T11:20:18;3.87;;;3.47;;
9976;SDS011;5029;47.378;11.776;2023-02-12T11:25:26;3.10;;;2.80;;
9976;SDS011;5029;47.378;11.776;2023-02-12T11:30:32;3.20;;;2.47;;
9976;SDS011;5029;47.378;11.776;2023-02-12T11:35:49;3.13;;;2.20;;
9976;SDS011;5029;47.378;11.776;2023-02-12T11:40:58;3.00;;;2.50;;
9976;SDS011;5029;47.378;11.776;2023-02-12T11:46:05;2.90;;;2.60;;
9976;SDS011;5029;47.378;11.776;2023-02-12T11:51:16;3.03;;;2.53;;
9976;SDS011;5029;47.378;11.776;2023-02-12T11:56:22;2.97;;;2.30;;
9976;SDS011;5029;47.378;11.776;2023-02-12T12:01:27;2.73;;;2.30;;
9976;SDS011;5029;47.378;11.776;2023-02-12T12:06:37;4.87;;;2.63;;
9976;SDS011;5029;47.378;11.776;2023-02-12T12:11:49;4.27;;;2.53;;
9976;SDS011;5029;47.378;11.776;2023-02-12T12:17:00;3.63;;;2.33;;
9976;SDS011;5029;47.378;11.776;2023-02-12T12:22:26;2.60;;;2.40;;
9976;SDS011;5029;47.378;11.776;2023-02-12T12:27:55;2.63;;;2.20;;
9976;SDS011;5029;47.378;11.776;2023-02-12T12:33:09;2.07;;;1.87;;
9976;SDS011;5029;47.378;11.776;2023-02-12T12:38:18;2.70;;;2.07;;
9976;SDS011;5029;47.378;11.776;2023-02-12T12:43:37;2.60;;;2.20;;
9976;SDS011;5029;47.378;11.776;2023-02-12T12:48:54;3.00;;;2.70;;
9976;SDS011;5029;47.378;11.776;2023-02-12T12:54:12;2.73;;;2.47;;
9976;SDS011;5029;47.378;11.776;2023-02-12T13:05:18;3.17;;;2.80;;
9976;SDS011;5029;47.378;11.776;2023-02-12T13:10:43;3.87;;;2.63;;
9976;SDS011;5029;47.378;11.776;2023-02-12T13:15:57;3.97;;;2.97;;
9976;SDS011;5029;47.378;11.776;2023-02-12T13:21:09;2.93;;;2.63;;
9976;SDS011;5029;47.378;11.776;2023-02-12T13:26:21;2.97;;;2.67;;
9976;SDS011;5029;47.378;11.776;2023-02-12T13:31:34;3.13;;;2.83;;
9976;SDS011;5029;47.378;11.776;2023-02-12T13:36:47;3.93;;;3.17;;
9976;SDS011;5029;47.378;11.776;2023-02-12T13:41:56;3.37;;;3.07;;
9976;SDS011;5029;47.378;11.776;2023-02-12T13:47:19;7.37;;;2.70;;
9976;SDS011;5029;47.378;11.776;2023-02-12T13:52:34;3.03;;;2.73;;
9976;SDS011;5029;47.378;11.776;2023-02-12T13:57:44;3.13;;;2.83;;
9976;SDS011;5029;47.378;11.776;2023-02-12T14:02:50;3.70;;;3.23;;
9976;SDS011;5029;47.378;11.776;2023-02-12T14:07:56;3.43;;;3.10;;
9976;SDS011;5029;47.378;11.776;2023-02-12T14:13:12;3.50;;;3.00;;
9976;SDS011;5029;47.378;11.776;2023-02-12T14:18:28;3.63;;;3.20;;
9976;SDS011;5029;47.378;11.776;2023-02-12T14:23:38;2.93;;;2.63;;
9976;SDS011;5029;47.378;11.776;2023-02-12T14:28:46;4.23;;;2.87;;
9976;SDS011;5029;47.378;11.776;2023-02-12T14:39:31;4.80;;;4.00;;
9976;SDS011;5029;47.378;11.776;2023-02-12T14:44:42;4.13;;;3.33;;
9976;SDS011;5029;47.378;11.776;2023-02-12T14:49:49;4.27;;;3.80;;
9976;SDS011;5029;47.378;11.776;2023-02-12T14:55:19;5.37;;;3.33;;
9976;SDS011;5029;47.378;11.776;2023-02-12T15:00:34;4.20;;;3.27;;
9976;SDS011;5029;47.378;11.776;2023-02-12T15:05:44;3.30;;;3.00;;
9976;SDS011;5029;47.378;11.776;2023-02-12T15:10:55;3.20;;;2.90;;
9976;SDS011;5029;47.378;11.776;2023-02-12T15:16:06;4.50;;;2.80;;
9976;SDS011;5029;47.378;11.776;2023-02-12T15:21:23;3.10;;;2.80;;
9976;SDS011;5029;47.378;11.776;2023-02-12T15:26:43;3.97;;;3.13;;
9976;SDS011;5029;47.378;11.776;2023-02-12T15:31:53;2.60;;;2.40;;
9976;SDS011;5029;47.378;11.776;2023-02-12T15:37:00;4.77;;;2.60;;
9976;SDS011;5029;47.378;11.776;2023-02-12T15:42:24;3.40;;;2.83;;
9976;SDS011;5029;47.378;11.776;2023-02-12T15:47:32;3.23;;;2.90;;
9976;SDS011;5029;47.378;11.776;2023-02-12T15:52:37;4.57;;;3.83;;
9976;SDS011;5029;47.378;11.776;2023-02-12T15:57:50;3.20;;;2.90;;
9976;SDS011;5029;47.378;11.776;2023-02-12T16:02:57;4.70;;;3.73;;
9976;SDS011;5029;47.378;11.776;2023-02-12T16:08:01;5.67;;;3.80;;
9976;SDS011;5029;47.378;11.776;2023-02-12T16:13:09;4.37;;;3.83;;
9976;SDS011;5029;47.378;11.776;2023-02-12T16:18:22;4.07;;;3.67;;
9976;SDS011;5029;47.378;11.776;2023-02-12T16:23:28;5.43;;;3.40;;
9976;SDS011;5029;47.378;11.776;2023-02-12T16:28:37;4.83;;;3.93;;
9976;SDS011;5029;47.378;11.776;2023-02-12T16:33:50;4.67;;;4.13;;
9976;SDS011;5029;47.378;11.776;2023-02-12T16:39:00;5.17;;;3.70;;
9976;SDS011;5029;47.378;11.776;2023-02-12T16:49:34;3.83;;;3.37;;
9976;SDS011;5029;47.378;11.776;2023-02-12T16:54:39;6.50;;;4.37;;
9976;SDS011;5029;47.378;11.776;2023-02-12T16:59:49;6.17;;;4.17;;
9976;SDS011;5029;47.378;11.776;2023-02-12T17:04:56;8.70;;;6.60;;
9976;SDS011;5029;47.378;11.776;2023-02-12T17:10:03;5.53;;;4.63;;
9976;SDS011;5029;47.378;11.776;2023-02-12T17:15:10;5.83;;;4.60;;
9976;SDS011;5029;47.378;11.776;2023-02-12T17:20:23;7.00;;;4.97;;
9976;SDS011;5029;47.378;11.776;2023-02-12T17:25:28;5.87;;;4.40;;
9976;SDS011;5029;47.378;11.776;2023-02-12T17:30:37;5.27;;;4.37;;
9976;SDS011;5029;47.378;11.776;2023-02-12T17:35:43;5.53;;;4.40;;
9976;SDS011;5029;47.378;11.776;2023-02-12T17:40:48;4.73;;;4.10;;
9976;SDS011;5029;47.378;11.776;2023-02-12T17:45:58;6.07;;;3.93;;
9976;SDS011;5029;47.378;11.776;2023-02-12T17:51:05;5.10;;;4.33;;
9976;SDS011;5029;47.378;11.776;2023-02-12T17:56:12;4.93;;;4.27;;
9976;SDS011;5029;47.378;11.776;2023-02-12T18:01:20;7.80;;;4.87;;
9976;SDS011;5029;47.378;11.776;2023-02-12T18:06:27;4.93;;;3.60;;
9976;SDS011;5029;47.378;11.776;2023-02-12T18:11:33;4.73;;;4.23;;
9976;SDS011;5029;47.378;11.776;2023-02-12T18:16:39;5.20;;;3.80;;
9976;SDS011;5029;47.378;11.776;2023-02-12T18:22:00;4.80;;;4.30;;
9976;SDS011;5029;47.378;11.776;2023-02-12T18:27:08;5.00;;;4.50;;
9976;SDS011;5029;47.378;11.776;2023-02-12T18:32:15;4.30;;;3.80;;
9976;SDS011;5029;47.378;11.776;2023-02-12T18:37:24;6.50;;;4.93;;
9976;SDS011;5029;47.378;11.776;2023-02-12T18:42:30;7.57;;;4.43;;
9976;SDS011;5029;47.378;11.776;2023-02-12T18:47:41;6.40;;;4.40;;
9976;SDS011;5029;47.378;11.776;2023-02-12T18:52:48;5.63;;;4.10;;
9976;SDS011;5029;47.378;11.776;2023-02-12T18:57:53;5.77;;;4.63;;
9976;SDS011;5029;47.378;11.776;2023-02-12T19:03:00;7.00;;;4.67;;
9976;SDS011;5029;47.378;11.776;2023-02-12T19:08:05;5.47;;;4.77;;
9976;SDS011;5029;47.378;11.776;2023-02-12T19:13:12;4.37;;;3.97;;
9976;SDS011;5029;47.378;11.776;2023-02-12T19:18:20;5.60;;;3.70;;
9976;SDS011;5029;47.378;11.776;2023-02-12T19:23:25;3.50;;;3.10;;
9976;SDS011;5029;47.378;11.776;2023-02-12T19:28:30;3.93;;;3.10;;
9976;SDS011;5029;47.378;11.776;2023-02-12T19:33:38;4.07;;;3.33;;
9976;SDS011;5029;47.378;11.776;2023-02-12T19:38:47;5.47;;;3.73;;
9976;SDS011;5029;47.378;11.776;2023-02-12T19:43:52;4.63;;;3.57;;
9976;SDS011;5029;47.378;11.776;2023-02-12T19:49:01;6.07;;;3.87;;
9976;SDS011;5029;47.378;11.776;2023-02-12T19:54:07;3.67;;;3.30;;
9976;SDS011;5029;47.378;11.776;2023-02-12T19:59:15;4.40;;;3.30;;
9976;SDS011;5029;47.378;11.776;2023-02-12T20:04:27;4.27;;;3.77;;
9976;SDS011;5029;47.378;11.776;2023-02-12T20:09:35;4.63;;;3.80;;
9976;SDS011;5029;47.378;11.776;2023-02-12T20:14:41;5.30;;;4.37;;
9976;SDS011;5029;47.378;11.776;2023-02-12T20:19:50;3.77;;;3.43;;
9976;SDS011;5029;47.378;11.776;2023-02-12T20:24:57;5.00;;;4.50;;
9976;SDS011;5029;47.378;11.776;2023-02-12T20:30:03;5.40;;;4.50;;
9976;SDS011;5029;47.378;11.776;2023-02-12T20:35:11;5.17;;;4.53;;
9976;SDS011;5029;47.378;11.776;2023-02-12T20:40:16;6.60;;;5.50;;
9976;SDS011;5029;47.378;11.776;2023-02-12T20:45:21;6.00;;;5.40;;
9976;SDS011;5029;47.378;11.776;2023-02-12T20:50:28;5.80;;;5.17;;
9976;SDS011;5029;47.378;11.776;2023-02-12T20:55:33;5.77;;;5.10;;
9976;SDS011;5029;47.378;11.776;2023-02-12T21:00:37;5.43;;;4.30;;
9976;SDS011;5029;47.378;11.776;2023-02-12T21:05:45;4.97;;;3.87;;
9976;SDS011;5029;47.378;11.776;2023-02-12T21:10:49;4.83;;;4.33;;
9976;SDS011;5029;47.378;11.776;2023-02-12T21:16:05;6.13;;;5.03;;
9976;SDS011;5029;47.378;11.776;2023-02-12T21:21:16;6.47;;;4.97;;
9976;SDS011;5029;47.378;11.776;2023-02-12T21:26:23;5.93;;;5.33;;
9976;SDS011;5029;47.378;11.776;2023-02-12T21:31:33;6.67;;;5.60;;
9976;SDS011;5029;47.378;11.776;2023-02-12T21:36:40;6.47;;;5.70;;
9976;SDS011;5029;47.378;11.776;2023-02-12T21:41:47;7.13;;;6.00;;
9976;SDS011;5029;47.378;11.776;2023-02-12T21:46:51;7.53;;;5.90;;
9976;SDS011;5029;47.378;11.776;2023-02-12T21:51:57;7.13;;;6.00;;
9976;SDS011;5029;47.378;11.776;2023-02-12T21:57:03;7.07;;;6.37;;
9976;SDS011;5029;47.378;11.776;2023-02-12T22:02:07;7.07;;;5.40;;
9976;SDS011;5029;47.378;11.776;2023-02-12T22:07:12;6.57;;;5.37;;
9976;SDS011;5029;47.378;11.776;2023-02-12T22:12:16;8.43;;;5.37;;
9976;SDS011;5029;47.378;11.776;2023-02-12T22:17:20;6.40;;;5.70;;
9976;SDS011;5029;47.378;11.776;2023-02-12T22:22:24;7.87;;;5.73;;
9976;SDS011;5029;47.378;11.776;2023-02-12T22:27:29;6.50;;;5.13;;
9976;SDS011;5029;47.378;11.776;2023-02-12T22:32:33;6.13;;;5.53;;
9976;SDS011;5029;47.378;11.776;2023-02-12T22:37:39;8.30;;;5.60;;
9976;SDS011;5029;47.378;11.776;2023-02-12T22:42:42;6.40;;;5.50;;
9976;SDS011;5029;47.378;11.776;2023-02-12T22:47:46;5.77;;;5.17;;
9976;SDS011;5029;47.378;11.776;2023-02-12T22:52:50;6.73;;;4.90;;
9976;SDS011;5029;47.378;11.776;2023-02-12T22:57:54;8.13;;;6.20;;
9976;SDS011;5029;47.378;11.776;2023-02-12T23:02:57;8.97;;;6.83;;
9976;SDS011;5029;47.378;11.776;2023-02-12T23:08:02;8.60;;;6.63;;
9976;SDS011;5029;47.378;11.776;2023-02-12T23:13:06;8.83;;;6.90;;
9976;SDS011;5029;47.378;11.776;2023-02-12T23:18:10;8.30;;;6.60;;
9976;SDS011;5029;47.378;11.776;2023-02-12T23:23:15;7.57;;;6.37;;
9976;SDS011;5029;47.378;11.776;2023-02-12T23:28:19;8.23;;;7.10;;
9976;SDS011;5029;47.378;11.776;2023-02-12T23:33:23;10.37;;;7.07;;
9976;SDS011;5029;47.378;11.776;2023-02-12T23:38:28;8.27;;;6.90;;
9976;SDS011;5029;47.378;11.776;2023-02-12T23:43:31;7.83;;;6.60;;
9976;SDS011;5029;47.378;11.776;2023-02-12T23:48:34;8.00;;;6.13;;
9976;SDS011;5029;47.378;11.776;2023-02-12T23:53:39;7.30;;;6.37;;
9976;SDS011;5029;47.378;11.776;2023-02-12T23:58:42;9.87;;;6.53;;
